| time (UTC) | temp F | wind direction | speed knots | gust knots | rain 1hr in | rain 24hr in | rain mn in | humidity % | barometer mb |
| 20260503034350 | 62 | 239 | 0.0 | 0.0 | 0.00 | 0.00 | 0.00 | 36 | 1009.1 |
| 20260503033329 | 63 | 239 | 0.0 | 0.0 | 0.00 | 0.00 | 0.00 | 35 | 1009.1 |
| 20260503032332 | 64 | 239 | 0.0 | 0.0 | 0.00 | 0.00 | 0.00 | 33 | 1009.1 |
| 20260503031330 | 65 | 239 | 0.0 | 0.0 | 0.00 | 0.00 | 0.00 | 32 | 1009.0 |
| 20260503030336 | 66 | 239 | 0.0 | 0.0 | 0.00 | 0.00 | 0.00 | 31 | 1009.1 |
| 20260503025323 | 67 | 239 | 0.0 | 0.0 | 0.00 | 0.00 | 0.00 | 30 | 1009.2 |
| 20260503024347 | 67 | 239 | 0.0 | 0.0 | 0.00 | 0.00 | 0.00 | 29 | 1009.2 |
| 20260503023352 | 68 | 278 | 0.0 | 0.0 | 0.00 | 0.00 | 0.00 | 29 | 1009.1 |
| 20260503022348 | 69 | 278 | 0.0 | 0.9 | 0.00 | 0.00 | 0.00 | 28 | 1009.1 |
| 20260503021332 | 69 | 278 | 0.0 | 2.6 | 0.00 | 0.00 | 0.00 | 28 | 1009.1 |
| 20260503020325 | 69 | 229 | 0.0 | 2.6 | 0.00 | 0.00 | 0.00 | 29 | 1009.1 |
| 20260503015329 | 70 | 287 | 0.9 | 2.6 | 0.00 | 0.00 | 0.00 | 29 | 1009.2 |
| 20260503014410 | 70 | 161 | 0.9 | 2.6 | 0.00 | 0.00 | 0.00 | 29 | 1009.3 |
| 20260503013340 | 70 | 231 | 0.0 | 1.7 | 0.00 | 0.00 | 0.00 | 29 | 1009.4 |
| 20260503012324 | 71 | 173 | 0.0 | 2.6 | 0.00 | 0.00 | 0.00 | 29 | 1009.5 |
| 20260503011348 | 71 | 247 | 0.9 | 3.5 | 0.00 | 0.00 | 0.00 | 28 | 1009.5 |
| 20260503010413 | 71 | 175 | 0.9 | 7.0 | 0.00 | 0.00 | 0.00 | 28 | 1009.5 |
| 20260503005329 | 72 | 146 | 1.7 | 5.2 | 0.00 | 0.00 | 0.00 | 27 | 1009.7 |
| 20260503004331 | 72 | 183 | 0.0 | 7.0 | 0.00 | 0.00 | 0.00 | 27 | 1009.8 |
| 20260503003354 | 73 | 182 | 2.6 | 12.2 | 0.00 | 0.00 | 0.00 | 27 | 1010.0 |
| 20260503002351 | 73 | 197 | 1.7 | 5.2 | 0.00 | 0.00 | 0.00 | 28 | 1010.2 |
| 20260503001327 | 72 | 304 | 0.9 | 5.2 | 0.00 | 0.00 | 0.00 | 28 | 1010.5 |
| 20260503000347 | 72 | 279 | 0.9 | 6.1 | 0.00 | 0.00 | 0.00 | 27 | 1010.6 |
| 20260502235330 | 72 | 202 | 0.9 | 7.8 | 0.00 | 0.00 | 0.00 | 27 | 1010.7 |
| 20260502234328 | 72 | 217 | 2.6 | 6.1 | 0.00 | 0.00 | 0.00 | 27 | 1011.0 |
| 20260502233332 | 72 | 196 | 1.7 | 7.0 | 0.00 | 0.00 | 0.00 | 27 | 1011.1 |
| 20260502232352 | 72 | 200 | 0.9 | 8.7 | 0.00 | 0.00 | 0.00 | 28 | 1011.3 |
| 20260502231329 | 73 | 173 | 2.6 | 6.1 | 0.00 | 0.00 | 0.00 | 26 | 1011.5 |
| 20260502230351 | 73 | 178 | 3.5 | 7.8 | 0.00 | 0.00 | 0.00 | 27 | 1011.8 |
| 20260502225330 | 73 | 269 | 0.9 | 7.8 | 0.00 | 0.00 | 0.00 | 27 | 1011.9 |
| 20260502224334 | 73 | 198 | 3.5 | 9.6 | 0.00 | 0.00 | 0.00 | 27 | 1012.1 |
| 20260502223335 | 73 | 144 | 1.7 | 8.7 | 0.00 | 0.00 | 0.00 | 28 | 1012.3 |
| 20260502222329 | 72 | 173 | 0.9 | 5.2 | 0.00 | 0.00 | 0.00 | 29 | 1012.5 |
| 20260502221412 | 73 | 205 | 1.7 | 9.6 | 0.00 | 0.00 | 0.00 | 28 | 1012.7 |
| 20260502220349 | 73 | 193 | 2.6 | 8.7 | 0.00 | 0.00 | 0.00 | 28 | 1012.8 |
| 20260502215342 | 72 | 232 | 0.9 | 5.2 | 0.00 | 0.00 | 0.00 | 28 | 1013.0 |
| 20260502214337 | 72 | 187 | 0.9 | 10.4 | 0.00 | 0.00 | 0.00 | 28 | 1013.2 |
| 20260502213333 | 72 | 169 | 2.6 | 7.8 | 0.00 | 0.00 | 0.00 | 28 | 1013.4 |
| 20260502212333 | 72 | 241 | 0.0 | 4.3 | 0.00 | 0.00 | 0.00 | 29 | 1013.5 |
| 20260502211330 | 71 | 163 | 0.9 | 6.1 | 0.00 | 0.00 | 0.00 | 29 | 1013.8 |
| 20260502210327 | 71 | 173 | 0.9 | 7.0 | 0.00 | 0.00 | 0.00 | 28 | 1013.8 |
| 20260502205328 | 71 | 288 | 1.7 | 8.7 | 0.00 | 0.00 | 0.00 | 29 | 1013.9 |
| 20260502204351 | 71 | 257 | 0.9 | 5.2 | 0.00 | 0.00 | 0.00 | 29 | 1014.1 |
| 20260502203330 | 71 | 138 | 0.0 | 5.2 | 0.00 | 0.00 | 0.00 | 29 | 1014.2 |
| 20260502202330 | 70 | 165 | 0.0 | 7.8 | 0.00 | 0.00 | 0.00 | 28 | 1014.7 |
| 20260502201350 | 71 | 208 | 0.0 | 3.5 | 0.00 | 0.00 | 0.00 | 29 | 1014.7 |
| 20260502200348 | 70 | 239 | 0.9 | 3.5 | 0.00 | 0.00 | 0.00 | 30 | 1014.8 |
| 20260502195348 | 69 | 171 | 0.9 | 5.2 | 0.00 | 0.00 | 0.00 | 30 | 1015.0 |
| 20260502194332 | 68 | 223 | 1.7 | 7.8 | 0.00 | 0.00 | 0.00 | 30 | 1015.2 |
| 20260502193338 | 68 | 246 | 1.7 | 8.7 | 0.00 | 0.00 | 0.00 | 28 | 1015.3 |
| 20260502192338 | 69 | 155 | 0.9 | 4.3 | 0.00 | 0.00 | 0.00 | 29 | 1015.4 |
| 20260502191332 | 69 | 211 | 0.9 | 3.5 | 0.00 | 0.00 | 0.00 | 31 | 1015.6 |
| 20260502190355 | 69 | 164 | 1.7 | 8.7 | 0.00 | 0.00 | 0.00 | 31 | 1015.7 |
| 20260502185335 | 69 | 233 | 2.6 | 7.8 | 0.00 | 0.00 | 0.00 | 30 | 1016.0 |
| 20260502184329 | 68 | 231 | 0.0 | 13.0 | 0.00 | 0.00 | 0.00 | 31 | 1016.0 |
| 20260502183329 | 68 | 285 | 1.7 | 7.8 | 0.00 | 0.00 | 0.00 | 32 | 1016.2 |
| 20260502182330 | 68 | 232 | 0.9 | 5.2 | 0.00 | 0.00 | 0.00 | 32 | 1016.4 |
| 20260502181350 | 68 | 291 | 0.0 | 4.3 | 0.00 | 0.00 | 0.00 | 31 | 1016.6 |
| 20260502180350 | 68 | 273 | 0.9 | 3.5 | 0.00 | 0.00 | 0.00 | 31 | 1016.9 |
| 20260502170330 | 66 | 246 | 0.0 | 2.6 | 0.00 | 0.00 | 0.00 | 34 | 1017.5 |
| 20260502164330 | 65 | 186 | 0.0 | 1.7 | 0.00 | 0.00 | 0.00 | 36 | 1017.7 |
| 20260502163352 | 65 | 196 | 0.0 | 2.6 | 0.00 | 0.00 | 0.00 | 37 | 1017.8 |
| 20260502162351 | 64 | 264 | 0.0 | 1.7 | 0.00 | 0.00 | 0.00 | 38 | 1017.9 |
| 20260502161328 | 63 | 203 | 0.9 | 2.6 | 0.00 | 0.00 | 0.00 | 38 | 1018.0 |
| 20260502160326 | 63 | 211 | 0.0 | 0.9 | 0.00 | 0.00 | 0.00 | 40 | 1018.0 |
| 20260502152329 | 59 | 190 | 0.0 | 0.9 | 0.00 | 0.00 | 0.00 | 50 | 1018.4 |
| 20260502151328 | 57 | 200 | 0.0 | 0.9 | 0.00 | 0.00 | 0.00 | 54 | 1018.5 |
| 20260502150352 | 56 | 212 | 0.0 | 0.9 | 0.00 | 0.00 | 0.00 | 52 | 1018.5 |
| 20260502130325 | 37 | 209 | 0.0 | 0.0 | 0.00 | 0.00 | 0.00 | 84 | 1018.6 |
| 20260502123327 | 35 | 262 | 0.0 | 0.0 | 0.00 | 0.00 | 0.00 | 83 | 1018.6 |
| 20260502122348 | 35 | 262 | 0.0 | 0.0 | 0.00 | 0.00 | 0.00 | 83 | 1018.6 |
| 20260502121324 | 35 | 262 | 0.0 | 0.0 | 0.00 | 0.00 | 0.00 | 83 | 1018.5 |
| 20260502120350 | 35 | 262 | 0.0 | 0.0 | 0.00 | 0.00 | 0.00 | 83 | 1018.4 |
| 20260502115323 | 35 | 262 | 0.0 | 0.0 | 0.00 | 0.00 | 0.00 | 82 | 1018.4 |
| 20260502114328 | 35 | 262 | 0.0 | 0.0 | 0.00 | 0.00 | 0.00 | 82 | 1018.3 |
| 20260502113352 | 35 | 262 | 0.0 | 0.0 | 0.00 | 0.00 | 0.00 | 81 | 1018.3 |
| 20260502112333 | 35 | 262 | 0.0 | 0.0 | 0.00 | 0.00 | 0.00 | 81 | 1018.3 |
| 20260502111331 | 36 | 262 | 0.0 | 0.0 | 0.00 | 0.00 | 0.00 | 81 | 1018.3 |
| 20260502110333 | 36 | 262 | 0.0 | 0.0 | 0.00 | 0.00 | 0.00 | 80 | 1018.3 |
| 20260502105326 | 36 | 262 | 0.0 | 0.0 | 0.00 | 0.00 | 0.00 | 80 | 1018.3 |
| 20260502104327 | 37 | 262 | 0.0 | 0.0 | 0.00 | 0.00 | 0.00 | 80 | 1018.3 |
| 20260502103352 | 37 | 262 | 0.0 | 0.0 | 0.00 | 0.00 | 0.00 | 79 | 1018.2 |
| 20260502102325 | 37 | 262 | 0.0 | 0.0 | 0.00 | 0.00 | 0.00 | 79 | 1018.3 |
| 20260502101328 | 38 | 262 | 0.0 | 0.0 | 0.00 | 0.00 | 0.00 | 79 | 1018.2 |
| 20260502100351 | 38 | 262 | 0.0 | 0.0 | 0.00 | 0.00 | 0.00 | 79 | 1018.1 |
| 20260502091329 | 39 | 269 | 0.0 | 0.0 | 0.00 | 0.00 | 0.00 | 80 | 1018.1 |
| 20260502090349 | 39 | 279 | 0.0 | 0.0 | 0.00 | 0.00 | 0.00 | 80 | 1018.0 |
| 20260502071332 | 44 | 311 | 0.0 | 0.0 | 0.00 | 0.00 | 0.00 | 73 | 1017.6 |
| 20260502070338 | 44 | 311 | 0.0 | 0.0 | 0.00 | 0.00 | 0.00 | 72 | 1017.6 |
| 20260502065329 | 45 | 311 | 0.0 | 0.0 | 0.00 | 0.00 | 0.00 | 71 | 1017.6 |
| 20260502064351 | 45 | 311 | 0.0 | 0.0 | 0.00 | 0.00 | 0.00 | 71 | 1017.5 |
| 20260502063349 | 46 | 311 | 0.0 | 0.0 | 0.00 | 0.00 | 0.00 | 70 | 1017.4 |
| 20260502062323 | 46 | 311 | 0.0 | 0.0 | 0.00 | 0.00 | 0.00 | 69 | 1017.4 |
| 20260502061327 | 46 | 311 | 0.0 | 0.0 | 0.00 | 0.00 | 0.00 | 69 | 1017.4 |
| 20260502060413 | 47 | 311 | 0.0 | 0.0 | 0.00 | 0.00 | 0.00 | 68 | 1017.3 |
| 20260502055347 | 47 | 311 | 0.0 | 0.0 | 0.00 | 0.00 | 0.00 | 67 | 1017.3 |
| 20260502054323 | 47 | 311 | 0.0 | 0.0 | 0.00 | 0.00 | 0.00 | 67 | 1017.3 |
| 20260502053333 | 48 | 311 | 0.0 | 0.0 | 0.00 | 0.00 | 0.00 | 66 | 1017.2 |
| 20260502052323 | 48 | 311 | 0.0 | 0.0 | 0.00 | 0.00 | 0.00 | 65 | 1017.2 |
| 20260502051326 | 49 | 311 | 0.0 | 0.0 | 0.00 | 0.00 | 0.00 | 63 | 1017.1 |
| 20260502050351 | 49 | 311 | 0.0 | 0.0 | 0.00 | 0.00 | 0.00 | 61 | 1017.0 |
| 20260502045342 | 50 | 311 | 0.0 | 0.0 | 0.00 | 0.00 | 0.00 | 59 | 1017.0 |
| 20260502044336 | 51 | 311 | 0.0 | 0.0 | 0.00 | 0.00 | 0.00 | 58 | 1016.9 |
| 20260502043400 | 52 | 311 | 0.0 | 0.0 | 0.00 | 0.00 | 0.00 | 57 | 1016.9 |
| 20260502042401 | 53 | 311 | 0.0 | 0.0 | 0.00 | 0.00 | 0.00 | 56 | 1016.8 |
| 20260502041336 | 54 | 302 | 0.0 | 0.0 | 0.00 | 0.00 | 0.00 | 54 | 1016.7 |
| 20260502040400 | 54 | 302 | 0.0 | 0.0 | 0.00 | 0.00 | 0.00 | 53 | 1016.6 |
| 20260502035331 | 55 | 300 | 0.0 | 0.0 | 0.00 | 0.00 | 0.00 | 52 | 1016.5 |